sensor_id;sensor_type;location;lat;lon;timestamp;pressure;altitude;pressure_sealevel;temperature;humidity
78800;BME280;68148;55.328;86.106;2023-05-27T00:02:01;100494.81;;;6.23;48.79
78800;BME280;68148;55.328;86.106;2023-05-27T00:04:27;100487.91;;;6.32;48.65
78800;BME280;68148;55.328;86.106;2023-05-27T00:06:53;100497.13;;;6.36;48.46
78800;BME280;68148;55.328;86.106;2023-05-27T00:09:19;100507.75;;;6.44;48.83
78800;BME280;68148;55.328;86.106;2023-05-27T00:11:45;100507.19;;;6.50;48.81
78800;BME280;68148;55.328;86.106;2023-05-27T00:14:11;100510.06;;;6.57;48.33
78800;BME280;68148;55.328;86.106;2023-05-27T00:16:37;100497.63;;;6.68;48.15
78800;BME280;68148;55.328;86.106;2023-05-27T00:19:03;100505.59;;;6.76;47.71
78800;BME280;68148;55.328;86.106;2023-05-27T00:21:29;100499.78;;;6.83;47.65
78800;BME280;68148;55.328;86.106;2023-05-27T00:23:55;100507.38;;;6.86;47.72
78800;BME280;68148;55.328;86.106;2023-05-27T00:26:21;100503.78;;;6.87;47.91
78800;BME280;68148;55.328;86.106;2023-05-27T00:28:47;100506.63;;;6.93;47.66
78800;BME280;68148;55.328;86.106;2023-05-27T00:31:13;100516.84;;;6.96;47.96
78800;BME280;68148;55.328;86.106;2023-05-27T00:33:39;100499.03;;;7.00;47.50
78800;BME280;68148;55.328;86.106;2023-05-27T00:36:24;100496.78;;;7.05;47.38
78800;BME280;68148;55.328;86.106;2023-05-27T00:38:51;100484.66;;;7.04;47.63
78800;BME280;68148;55.328;86.106;2023-05-27T00:41:17;100490.72;;;7.05;47.55
78800;BME280;68148;55.328;86.106;2023-05-27T00:43:43;100498.41;;;7.16;47.29
78800;BME280;68148;55.328;86.106;2023-05-27T00:46:09;100488.69;;;7.26;46.97
78800;BME280;68148;55.328;86.106;2023-05-27T00:48:36;100492.28;;;7.25;46.85
78800;BME280;68148;55.328;86.106;2023-05-27T00:51:02;100492.94;;;7.37;47.17
78800;BME280;68148;55.328;86.106;2023-05-27T00:53:34;100501.56;;;7.47;47.25
78800;BME280;68148;55.328;86.106;2023-05-27T00:56:02;100490.88;;;7.58;46.64
78800;BME280;68148;55.328;86.106;2023-05-27T00:58:32;100496.72;;;7.70;46.56
78800;BME280;68148;55.328;86.106;2023-05-27T01:00:58;100495.81;;;7.79;45.85
78800;BME280;68148;55.328;86.106;2023-05-27T01:03:23;100500.03;;;7.72;46.21
78800;BME280;68148;55.328;86.106;2023-05-27T01:05:52;100491.63;;;7.68;46.56
78800;BME280;68148;55.328;86.106;2023-05-27T01:11:32;100488.91;;;7.78;46.11
78800;BME280;68148;55.328;86.106;2023-05-27T01:14:04;100492.75;;;7.84;46.31
78800;BME280;68148;55.328;86.106;2023-05-27T01:16:35;100494.78;;;7.90;45.71
78800;BME280;68148;55.328;86.106;2023-05-27T01:19:04;100492.81;;;7.92;45.85
78800;BME280;68148;55.328;86.106;2023-05-27T01:21:34;100493.88;;;7.99;46.33
78800;BME280;68148;55.328;86.106;2023-05-27T01:24:04;100488.03;;;8.05;46.45
78800;BME280;68148;55.328;86.106;2023-05-27T01:26:31;100498.34;;;8.24;46.01
78800;BME280;68148;55.328;86.106;2023-05-27T01:28:57;100491.91;;;8.37;45.29
78800;BME280;68148;55.328;86.106;2023-05-27T01:31:49;100490.75;;;8.57;44.82
78800;BME280;68148;55.328;86.106;2023-05-27T01:34:21;100493.44;;;8.73;44.28
78800;BME280;68148;55.328;86.106;2023-05-27T01:36:58;100487.75;;;8.78;44.30
78800;BME280;68148;55.328;86.106;2023-05-27T01:39:25;100482.16;;;8.81;44.54
78800;BME280;68148;55.328;86.106;2023-05-27T01:41:52;100480.84;;;8.85;44.28
78800;BME280;68148;55.328;86.106;2023-05-27T01:44:19;100472.53;;;8.98;44.00
78800;BME280;68148;55.328;86.106;2023-05-27T01:46:46;100482.09;;;9.07;43.46
78800;BME280;68148;55.328;86.106;2023-05-27T01:49:11;100482.78;;;9.09;43.77
78800;BME280;68148;55.328;86.106;2023-05-27T01:51:37;100478.56;;;9.24;43.42
78800;BME280;68148;55.328;86.106;2023-05-27T01:54:03;100470.03;;;9.31;43.39
78800;BME280;68148;55.328;86.106;2023-05-27T01:56:30;100465.47;;;9.57;42.56
78800;BME280;68148;55.328;86.106;2023-05-27T01:58:56;100471.59;;;9.74;42.47
78800;BME280;68148;55.328;86.106;2023-05-27T02:01:21;100469.31;;;9.87;41.93
78800;BME280;68148;55.328;86.106;2023-05-27T02:03:47;100462.56;;;9.93;41.95
78800;BME280;68148;55.328;86.106;2023-05-27T02:06:13;100466.84;;;10.02;41.97
78800;BME280;68148;55.328;86.106;2023-05-27T02:08:39;100475.91;;;10.16;41.65
78800;BME280;68148;55.328;86.106;2023-05-27T02:11:06;100470.81;;;10.31;41.19
78800;BME280;68148;55.328;86.106;2023-05-27T02:13:32;100469.50;;;10.35;41.31
78800;BME280;68148;55.328;86.106;2023-05-27T02:15:58;100472.47;;;10.40;41.27
78800;BME280;68148;55.328;86.106;2023-05-27T02:18:24;100463.88;;;10.54;40.92
78800;BME280;68148;55.328;86.106;2023-05-27T02:20:50;100449.66;;;10.71;40.63
78800;BME280;68148;55.328;86.106;2023-05-27T02:23:15;100455.34;;;10.91;40.88
78800;BME280;68148;55.328;86.106;2023-05-27T02:25:41;100457.63;;;11.02;40.01
78800;BME280;68148;55.328;86.106;2023-05-27T02:28:07;100465.22;;;10.97;40.49
78800;BME280;68148;55.328;86.106;2023-05-27T02:30:33;100461.25;;;11.01;40.29
78800;BME280;68148;55.328;86.106;2023-05-27T02:32:59;100463.84;;;11.18;40.46
78800;BME280;68148;55.328;86.106;2023-05-27T02:35:25;100469.19;;;11.33;40.06
78800;BME280;68148;55.328;86.106;2023-05-27T02:37:51;100457.34;;;11.51;39.78
78800;BME280;68148;55.328;86.106;2023-05-27T02:40:25;100453.03;;;11.59;39.73
78800;BME280;68148;55.328;86.106;2023-05-27T02:42:51;100456.09;;;11.70;39.25
78800;BME280;68148;55.328;86.106;2023-05-27T02:45:17;100461.03;;;11.73;39.15
78800;BME280;68148;55.328;86.106;2023-05-27T02:47:43;100449.06;;;11.86;39.25
78800;BME280;68148;55.328;86.106;2023-05-27T02:50:09;100456.25;;;12.00;38.65
78800;BME280;68148;55.328;86.106;2023-05-27T02:52:35;100449.88;;;12.09;38.34
78800;BME280;68148;55.328;86.106;2023-05-27T02:55:00;100444.13;;;12.20;38.58
78800;BME280;68148;55.328;86.106;2023-05-27T02:57:26;100440.16;;;12.39;37.99
78800;BME280;68148;55.328;86.106;2023-05-27T02:59:52;100431.25;;;12.55;37.00
78800;BME280;68148;55.328;86.106;2023-05-27T03:02:18;100435.25;;;12.66;37.21
78800;BME280;68148;55.328;86.106;2023-05-27T03:04:44;100438.09;;;12.64;36.99
78800;BME280;68148;55.328;86.106;2023-05-27T03:07:09;100436.81;;;12.75;37.00
78800;BME280;68148;55.328;86.106;2023-05-27T03:09:35;100435.53;;;12.86;36.15
78800;BME280;68148;55.328;86.106;2023-05-27T03:12:01;100436.97;;;13.03;36.59
78800;BME280;68148;55.328;86.106;2023-05-27T03:14:27;100416.13;;;13.15;35.43
78800;BME280;68148;55.328;86.106;2023-05-27T03:16:53;100445.63;;;13.26;35.23
78800;BME280;68148;55.328;86.106;2023-05-27T03:19:19;100447.72;;;13.31;35.35
78800;BME280;68148;55.328;86.106;2023-05-27T03:21:45;100456.47;;;13.46;34.82
78800;BME280;68148;55.328;86.106;2023-05-27T03:24:11;100454.53;;;13.55;34.19
78800;BME280;68148;55.328;86.106;2023-05-27T03:26:37;100442.06;;;13.56;34.03
78800;BME280;68148;55.328;86.106;2023-05-27T03:29:02;100431.78;;;13.46;34.38
78800;BME280;68148;55.328;86.106;2023-05-27T03:31:29;100436.22;;;13.60;34.73
78800;BME280;68148;55.328;86.106;2023-05-27T03:33:55;100429.41;;;13.72;34.22
78800;BME280;68148;55.328;86.106;2023-05-27T03:36:21;100463.09;;;13.57;34.56
78800;BME280;68148;55.328;86.106;2023-05-27T03:38:47;100414.34;;;13.37;35.23
78800;BME280;68148;55.328;86.106;2023-05-27T03:41:13;100438.88;;;13.60;35.38
78800;BME280;68148;55.328;86.106;2023-05-27T03:43:39;100445.22;;;13.87;34.65
78800;BME280;68148;55.328;86.106;2023-05-27T03:46:04;100444.69;;;13.70;34.65
78800;BME280;68148;55.328;86.106;2023-05-27T03:48:30;100430.53;;;13.42;35.32
78800;BME280;68148;55.328;86.106;2023-05-27T03:50:56;100416.69;;;13.46;34.98
78800;BME280;68148;55.328;86.106;2023-05-27T03:53:21;100433.47;;;13.17;35.40
78800;BME280;68148;55.328;86.106;2023-05-27T03:55:47;100447.19;;;13.21;35.65
78800;BME280;68148;55.328;86.106;2023-05-27T03:58:13;100429.00;;;13.33;35.51
78800;BME280;68148;55.328;86.106;2023-05-27T04:00:42;100437.03;;;13.10;36.14
78800;BME280;68148;55.328;86.106;2023-05-27T04:03:09;100433.19;;;13.27;35.84
78800;BME280;68148;55.328;86.106;2023-05-27T04:05:34;100434.91;;;13.35;36.33
78800;BME280;68148;55.328;86.106;2023-05-27T04:08:02;100440.09;;;13.43;35.79
78800;BME280;68148;55.328;86.106;2023-05-27T04:10:27;100443.13;;;13.40;36.15
78800;BME280;68148;55.328;86.106;2023-05-27T04:12:53;100444.25;;;13.31;36.57
78800;BME280;68148;55.328;86.106;2023-05-27T04:15:19;100445.19;;;13.08;37.12
78800;BME280;68148;55.328;86.106;2023-05-27T04:17:45;100459.97;;;13.17;37.71
78800;BME280;68148;55.328;86.106;2023-05-27T04:20:11;100450.59;;;12.85;39.06
78800;BME280;68148;55.328;86.106;2023-05-27T04:22:37;100463.56;;;12.50;40.66
78800;BME280;68148;55.328;86.106;2023-05-27T04:25:03;100475.25;;;12.18;42.27
78800;BME280;68148;55.328;86.106;2023-05-27T04:27:28;100465.22;;;12.14;42.67
78800;BME280;68148;55.328;86.106;2023-05-27T04:29:54;100479.03;;;12.01;43.52
78800;BME280;68148;55.328;86.106;2023-05-27T04:32:20;100492.13;;;11.40;45.28
78800;BME280;68148;55.328;86.106;2023-05-27T04:34:46;100475.41;;;11.48;45.52
78800;BME280;68148;55.328;86.106;2023-05-27T04:37:11;100466.53;;;11.41;45.97
78800;BME280;68148;55.328;86.106;2023-05-27T04:39:42;100465.56;;;11.34;46.69
78800;BME280;68148;55.328;86.106;2023-05-27T04:42:08;100464.19;;;11.07;47.61
78800;BME280;68148;55.328;86.106;2023-05-27T04:44:34;100455.03;;;11.25;47.50
78800;BME280;68148;55.328;86.106;2023-05-27T04:47:00;100455.75;;;11.42;47.57
78800;BME280;68148;55.328;86.106;2023-05-27T04:49:26;100456.19;;;11.54;46.98
78800;BME280;68148;55.328;86.106;2023-05-27T04:51:51;100453.84;;;11.59;47.17
78800;BME280;68148;55.328;86.106;2023-05-27T04:54:17;100453.69;;;11.61;47.66
78800;BME280;68148;55.328;86.106;2023-05-27T04:56:43;100444.78;;;11.85;46.67
78800;BME280;68148;55.328;86.106;2023-05-27T04:59:09;100446.41;;;11.86;46.87
78800;BME280;68148;55.328;86.106;2023-05-27T05:01:34;100449.16;;;12.15;46.10
78800;BME280;68148;55.328;86.106;2023-05-27T05:04:00;100428.72;;;12.24;45.75
78800;BME280;68148;55.328;86.106;2023-05-27T05:06:26;100451.69;;;12.46;45.06
78800;BME280;68148;55.328;86.106;2023-05-27T05:08:52;100438.25;;;12.48;43.84
78800;BME280;68148;55.328;86.106;2023-05-27T05:11:17;100447.69;;;12.50;44.20
78800;BME280;68148;55.328;86.106;2023-05-27T05:13:44;100439.00;;;12.71;43.86
78800;BME280;68148;55.328;86.106;2023-05-27T05:16:09;100446.25;;;13.14;42.53
78800;BME280;68148;55.328;86.106;2023-05-27T05:18:35;100424.91;;;13.15;42.11
78800;BME280;68148;55.328;86.106;2023-05-27T05:21:02;100410.19;;;13.27;41.46
78800;BME280;68148;55.328;86.106;2023-05-27T05:23:27;100420.50;;;13.22;41.14
78800;BME280;68148;55.328;86.106;2023-05-27T05:25:53;100411.91;;;13.20;40.81
78800;BME280;68148;55.328;86.106;2023-05-27T05:28:20;100425.63;;;13.24;40.92
78800;BME280;68148;55.328;86.106;2023-05-27T05:30:45;100411.88;;;13.35;40.76
78800;BME280;68148;55.328;86.106;2023-05-27T05:33:11;100409.88;;;13.37;40.39
78800;BME280;68148;55.328;86.106;2023-05-27T05:35:37;100402.63;;;13.46;40.77
78800;BME280;68148;55.328;86.106;2023-05-27T05:38:02;100416.81;;;13.60;40.57
78800;BME280;68148;55.328;86.106;2023-05-27T05:40:28;100410.59;;;13.67;39.66
78800;BME280;68148;55.328;86.106;2023-05-27T05:42:54;100404.63;;;13.65;40.39
78800;BME280;68148;55.328;86.106;2023-05-27T05:45:20;100401.53;;;13.62;40.08
78800;BME280;68148;55.328;86.106;2023-05-27T05:47:46;100396.66;;;13.44;40.76
78800;BME280;68148;55.328;86.106;2023-05-27T05:50:12;100391.75;;;13.41;41.36
78800;BME280;68148;55.328;86.106;2023-05-27T05:52:37;100379.13;;;13.64;40.44
78800;BME280;68148;55.328;86.106;2023-05-27T05:55:04;100371.66;;;13.74;40.84
78800;BME280;68148;55.328;86.106;2023-05-27T05:57:30;100380.78;;;14.21;39.89
78800;BME280;68148;55.328;86.106;2023-05-27T05:59:56;100382.31;;;14.31;40.01
78800;BME280;68148;55.328;86.106;2023-05-27T06:02:21;100387.63;;;14.37;39.42
78800;BME280;68148;55.328;86.106;2023-05-27T06:04:47;100407.19;;;14.29;39.95
78800;BME280;68148;55.328;86.106;2023-05-27T06:07:13;100400.09;;;14.09;40.82
78800;BME280;68148;55.328;86.106;2023-05-27T06:09:39;100403.19;;;14.12;40.68
78800;BME280;68148;55.328;86.106;2023-05-27T06:12:05;100390.91;;;13.83;41.57
78800;BME280;68148;55.328;86.106;2023-05-27T06:14:30;100370.84;;;13.52;42.25
78800;BME280;68148;55.328;86.106;2023-05-27T06:16:56;100391.69;;;13.77;41.87
78800;BME280;68148;55.328;86.106;2023-05-27T06:19:22;100382.72;;;13.57;43.13
78800;BME280;68148;55.328;86.106;2023-05-27T06:21:48;100383.97;;;13.39;42.46
78800;BME280;68148;55.328;86.106;2023-05-27T06:24:14;100384.53;;;13.35;42.52
78800;BME280;68148;55.328;86.106;2023-05-27T06:26:40;100372.69;;;13.31;43.05
78800;BME280;68148;55.328;86.106;2023-05-27T06:29:05;100376.97;;;13.32;43.31
78800;BME280;68148;55.328;86.106;2023-05-27T06:31:31;100380.72;;;13.37;42.72
78800;BME280;68148;55.328;86.106;2023-05-27T06:33:57;100370.44;;;13.27;42.70
78800;BME280;68148;55.328;86.106;2023-05-27T06:36:22;100379.75;;;13.09;43.09
78800;BME280;68148;55.328;86.106;2023-05-27T06:38:48;100384.16;;;13.01;42.83
78800;BME280;68148;55.328;86.106;2023-05-27T06:41:14;100378.31;;;13.06;42.96
78800;BME280;68148;55.328;86.106;2023-05-27T06:43:41;100378.78;;;12.95;43.00
78800;BME280;68148;55.328;86.106;2023-05-27T06:46:07;100383.22;;;13.09;43.19
78800;BME280;68148;55.328;86.106;2023-05-27T06:48:33;100362.63;;;13.26;41.95
78800;BME280;68148;55.328;86.106;2023-05-27T06:50:59;100361.47;;;13.28;42.14
78800;BME280;68148;55.328;86.106;2023-05-27T06:53:25;100344.66;;;13.43;41.78
78800;BME280;68148;55.328;86.106;2023-05-27T06:55:51;100350.78;;;13.65;41.18
78800;BME280;68148;55.328;86.106;2023-05-27T06:58:16;100348.00;;;14.01;41.11
78800;BME280;68148;55.328;86.106;2023-05-27T07:00:42;100350.19;;;14.53;39.02
78800;BME280;68148;55.328;86.106;2023-05-27T07:03:08;100342.19;;;15.01;37.58
78800;BME280;68148;55.328;86.106;2023-05-27T07:05:34;100338.38;;;15.31;35.24
78800;BME280;68148;55.328;86.106;2023-05-27T07:08:00;100349.22;;;15.36;34.69
78800;BME280;68148;55.328;86.106;2023-05-27T07:10:25;100353.28;;;15.32;35.20
78800;BME280;68148;55.328;86.106;2023-05-27T07:12:51;100333.47;;;15.34;34.44
78800;BME280;68148;55.328;86.106;2023-05-27T07:15:17;100336.13;;;15.47;34.05
78800;BME280;68148;55.328;86.106;2023-05-27T07:17:43;100346.97;;;15.39;34.16
78800;BME280;68148;55.328;86.106;2023-05-27T07:20:09;100324.44;;;15.22;34.46
78800;BME280;68148;55.328;86.106;2023-05-27T07:22:38;100338.97;;;15.26;34.77
78800;BME280;68148;55.328;86.106;2023-05-27T07:25:04;100317.88;;;15.18;34.47
78800;BME280;68148;55.328;86.106;2023-05-27T07:27:30;100305.19;;;15.20;34.79
78800;BME280;68148;55.328;86.106;2023-05-27T07:29:56;100314.84;;;15.21;34.76
78800;BME280;68148;55.328;86.106;2023-05-27T07:32:21;100318.53;;;15.33;34.44
78800;BME280;68148;55.328;86.106;2023-05-27T07:34:47;100316.06;;;15.32;34.53
78800;BME280;68148;55.328;86.106;2023-05-27T07:37:13;100315.88;;;15.40;34.12
78800;BME280;68148;55.328;86.106;2023-05-27T07:39:39;100305.03;;;15.48;34.48
78800;BME280;68148;55.328;86.106;2023-05-27T07:42:05;100307.09;;;15.59;34.09
78800;BME280;68148;55.328;86.106;2023-05-27T07:44:30;100291.75;;;15.55;34.66
78800;BME280;68148;55.328;86.106;2023-05-27T07:46:56;100294.81;;;15.85;34.12
78800;BME280;68148;55.328;86.106;2023-05-27T07:49:22;100288.00;;;16.15;33.70
78800;BME280;68148;55.328;86.106;2023-05-27T07:51:48;100289.59;;;16.30;33.06
78800;BME280;68148;55.328;86.106;2023-05-27T07:54:14;100294.03;;;16.49;32.29
78800;BME280;68148;55.328;86.106;2023-05-27T07:56:39;100277.69;;;16.32;32.41
78800;BME280;68148;55.328;86.106;2023-05-27T07:59:05;100287.91;;;16.42;32.26
78800;BME280;68148;55.328;86.106;2023-05-27T08:01:31;100277.91;;;16.31;32.20
78800;BME280;68148;55.328;86.106;2023-05-27T08:03:57;100278.47;;;16.39;32.23
78800;BME280;68148;55.328;86.106;2023-05-27T08:06:23;100281.19;;;16.77;31.93
78800;BME280;68148;55.328;86.106;2023-05-27T08:08:48;100267.97;;;16.58;32.10
78800;BME280;68148;55.328;86.106;2023-05-27T08:11:14;100274.81;;;16.40;31.73
78800;BME280;68148;55.328;86.106;2023-05-27T08:13:40;100251.13;;;16.12;32.06
78800;BME280;68148;55.328;86.106;2023-05-27T08:16:06;100274.91;;;16.07;32.67
78800;BME280;68148;55.328;86.106;2023-05-27T08:18:31;100260.41;;;16.48;32.01
78800;BME280;68148;55.328;86.106;2023-05-27T08:20:57;100247.28;;;16.53;32.05
78800;BME280;68148;55.328;86.106;2023-05-27T08:23:23;100252.47;;;16.35;32.25
78800;BME280;68148;55.328;86.106;2023-05-27T08:25:49;100242.16;;;16.51;32.45
78800;BME280;68148;55.328;86.106;2023-05-27T08:28:15;100251.13;;;16.57;32.11
78800;BME280;68148;55.328;86.106;2023-05-27T08:30:41;100238.44;;;16.52;31.80
78800;BME280;68148;55.328;86.106;2023-05-27T08:33:06;100225.75;;;16.55;31.95
78800;BME280;68148;55.328;86.106;2023-05-27T08:35:32;100236.41;;;16.93;31.48
78800;BME280;68148;55.328;86.106;2023-05-27T08:37:58;100208.81;;;16.81;31.47
78800;BME280;68148;55.328;86.106;2023-05-27T08:40:24;100232.28;;;16.97;31.56
78800;BME280;68148;55.328;86.106;2023-05-27T08:42:50;100219.25;;;17.39;31.26
78800;BME280;68148;55.328;86.106;2023-05-27T08:45:17;100218.97;;;17.90;30.50
78800;BME280;68148;55.328;86.106;2023-05-27T08:47:43;100211.28;;;18.31;29.86
78800;BME280;68148;55.328;86.106;2023-05-27T08:50:09;100211.88;;;18.33;29.85
78800;BME280;68148;55.328;86.106;2023-05-27T08:52:39;100210.84;;;18.15;29.65
78800;BME280;68148;55.328;86.106;2023-05-27T08:55:10;100218.59;;;18.05;30.49
78800;BME280;68148;55.328;86.106;2023-05-27T08:57:39;100207.97;;;17.80;30.04
78800;BME280;68148;55.328;86.106;2023-05-27T09:00:08;100218.19;;;17.65;30.19
78800;BME280;68148;55.328;86.106;2023-05-27T09:02:35;100205.28;;;17.98;29.80
78800;BME280;68148;55.328;86.106;2023-05-27T09:05:01;100197.06;;;18.18;29.68
78800;BME280;68148;55.328;86.106;2023-05-27T09:07:27;100202.09;;;18.26;29.14
78800;BME280;68148;55.328;86.106;2023-05-27T09:09:57;100205.75;;;18.44;28.75
78800;BME280;68148;55.328;86.106;2023-05-27T09:12:25;100198.75;;;18.31;28.95
78800;BME280;68148;55.328;86.106;2023-05-27T09:14:51;100203.50;;;18.29;28.65
78800;BME280;68148;55.328;86.106;2023-05-27T09:17:18;100187.38;;;17.87;28.61
78800;BME280;68148;55.328;86.106;2023-05-27T09:19:47;100191.22;;;17.91;28.78
78800;BME280;68148;55.328;86.106;2023-05-27T09:22:23;100184.28;;;17.65;29.05
78800;BME280;68148;55.328;86.106;2023-05-27T09:24:52;100197.56;;;17.72;29.25
78800;BME280;68148;55.328;86.106;2023-05-27T09:27:23;100195.13;;;17.70;29.58
78800;BME280;68148;55.328;86.106;2023-05-27T09:29:49;100190.66;;;17.64;29.46
78800;BME280;68148;55.328;86.106;2023-05-27T09:32:25;100194.69;;;17.73;28.89
78800;BME280;68148;55.328;86.106;2023-05-27T09:34:51;100193.09;;;17.66;28.88
78800;BME280;68148;55.328;86.106;2023-05-27T09:37:17;100192.16;;;17.60;28.53
78800;BME280;68148;55.328;86.106;2023-05-27T09:39:43;100190.91;;;17.81;28.58
78800;BME280;68148;55.328;86.106;2023-05-27T09:42:09;100197.06;;;18.18;27.67
78800;BME280;68148;55.328;86.106;2023-05-27T09:44:36;100190.22;;;18.52;27.84
78800;BME280;68148;55.328;86.106;2023-05-27T09:47:02;100181.28;;;18.77;27.48
78800;BME280;68148;55.328;86.106;2023-05-27T09:49:29;100184.19;;;18.87;26.93
78800;BME280;68148;55.328;86.106;2023-05-27T09:51:58;100182.72;;;19.15;27.09
78800;BME280;68148;55.328;86.106;2023-05-27T09:54:24;100192.03;;;19.12;26.84
78800;BME280;68148;55.328;86.106;2023-05-27T09:56:50;100188.47;;;18.88;26.68
78800;BME280;68148;55.328;86.106;2023-05-27T09:59:17;100180.63;;;18.63;27.01
78800;BME280;68148;55.328;86.106;2023-05-27T10:01:45;100181.16;;;18.53;27.12
78800;BME280;68148;55.328;86.106;2023-05-27T10:04:14;100186.88;;;18.57;27.38
78800;BME280;68148;55.328;86.106;2023-05-27T10:06:41;100191.41;;;18.57;27.10
78800;BME280;68148;55.328;86.106;2023-05-27T10:09:07;100177.47;;;18.55;27.04
78800;BME280;68148;55.328;86.106;2023-05-27T10:11:34;100179.78;;;18.63;26.95
78800;BME280;68148;55.328;86.106;2023-05-27T10:14:00;100188.59;;;18.51;27.17
78800;BME280;68148;55.328;86.106;2023-05-27T10:16:27;100188.25;;;18.48;26.84
78800;BME280;68148;55.328;86.106;2023-05-27T10:18:54;100186.88;;;18.57;27.17
78800;BME280;68148;55.328;86.106;2023-05-27T10:21:21;100186.88;;;18.57;27.37
78800;BME280;68148;55.328;86.106;2023-05-27T10:23:57;100198.84;;;18.06;28.03
78800;BME280;68148;55.328;86.106;2023-05-27T10:26:35;100213.09;;;18.00;28.08
78800;BME280;68148;55.328;86.106;2023-05-27T10:29:11;100224.66;;;17.75;28.68
78800;BME280;68148;55.328;86.106;2023-05-27T10:31:47;100240.19;;;17.10;31.46
78800;BME280;68148;55.328;86.106;2023-05-27T10:34:14;100230.81;;;16.24;35.58
78800;BME280;68148;55.328;86.106;2023-05-27T10:36:40;100255.75;;;15.72;37.88
78800;BME280;68148;55.328;86.106;2023-05-27T10:39:14;100237.91;;;15.59;39.00
78800;BME280;68148;55.328;86.106;2023-05-27T10:41:41;100234.03;;;15.42;37.87
78800;BME280;68148;55.328;86.106;2023-05-27T10:44:08;100228.72;;;15.42;38.05
78800;BME280;68148;55.328;86.106;2023-05-27T10:46:38;100219.94;;;15.68;37.11
78800;BME280;68148;55.328;86.106;2023-05-27T10:49:14;100201.41;;;15.99;36.24
78800;BME280;68148;55.328;86.106;2023-05-27T10:51:42;100206.22;;;16.22;35.95
78800;BME280;68148;55.328;86.106;2023-05-27T10:54:08;100205.56;;;16.34;35.47
78800;BME280;68148;55.328;86.106;2023-05-27T10:56:34;100199.84;;;16.30;35.38
78800;BME280;68148;55.328;86.106;2023-05-27T10:59:01;100202.25;;;15.93;35.22
78800;BME280;68148;55.328;86.106;2023-05-27T11:01:28;100210.44;;;15.92;35.36
78800;BME280;68148;55.328;86.106;2023-05-27T11:03:58;100224.38;;;15.87;35.64
78800;BME280;68148;55.328;86.106;2023-05-27T11:06:23;100239.97;;;15.77;35.90
78800;BME280;68148;55.328;86.106;2023-05-27T11:08:53;100247.91;;;15.84;35.60
78800;BME280;68148;55.328;86.106;2023-05-27T11:11:18;100245.25;;;15.90;35.51
78800;BME280;68148;55.328;86.106;2023-05-27T11:13:46;100227.22;;;15.92;35.70
78800;BME280;68148;55.328;86.106;2023-05-27T11:16:13;100202.25;;;15.93;36.69
78800;BME280;68148;55.328;86.106;2023-05-27T11:18:39;100213.72;;;15.94;36.81
78800;BME280;68148;55.328;86.106;2023-05-27T11:21:06;100214.72;;;15.93;36.64
78800;BME280;68148;55.328;86.106;2023-05-27T11:26:04;100219.69;;;15.83;36.61
78800;BME280;68148;55.328;86.106;2023-05-27T11:28:30;100239.31;;;15.88;36.44
78800;BME280;68148;55.328;86.106;2023-05-27T11:31:02;100228.25;;;15.91;36.36
78800;BME280;68148;55.328;86.106;2023-05-27T11:33:34;100228.66;;;15.88;36.77
78800;BME280;68148;55.328;86.106;2023-05-27T11:36:04;100213.75;;;15.81;36.96
78800;BME280;68148;55.328;86.106;2023-05-27T11:38:30;100215.97;;;15.84;37.20
78800;BME280;68148;55.328;86.106;2023-05-27T11:41:07;100217.19;;;15.88;36.73
78800;BME280;68148;55.328;86.106;2023-05-27T11:43:33;100212.91;;;15.87;36.57
78800;BME280;68148;55.328;86.106;2023-05-27T11:46:04;100221.69;;;15.94;36.57
78800;BME280;68148;55.328;86.106;2023-05-27T11:48:30;100217.81;;;15.90;37.33
78800;BME280;68148;55.328;86.106;2023-05-27T11:50:56;100223.38;;;15.82;37.58
78800;BME280;68148;55.328;86.106;2023-05-27T11:53:21;100238.94;;;15.78;37.26
78800;BME280;68148;55.328;86.106;2023-05-27T11:55:47;100230.16;;;15.64;37.90
78800;BME280;68148;55.328;86.106;2023-05-27T11:58:13;100237.91;;;15.59;38.47
78800;BME280;68148;55.328;86.106;2023-05-27T12:00:39;100248.13;;;15.62;38.27
78800;BME280;68148;55.328;86.106;2023-05-27T12:03:06;100253.47;;;15.69;37.98
78800;BME280;68148;55.328;86.106;2023-05-27T12:05:31;100239.97;;;15.64;38.43
78800;BME280;68148;55.328;86.106;2023-05-27T12:07:57;100252.22;;;15.58;38.70
78800;BME280;68148;55.328;86.106;2023-05-27T12:10:23;100247.13;;;15.37;39.03
78800;BME280;68148;55.328;86.106;2023-05-27T12:12:48;100233.41;;;15.20;39.59
78800;BME280;68148;55.328;86.106;2023-05-27T12:15:14;100239.56;;;15.14;39.53
78800;BME280;68148;55.328;86.106;2023-05-27T12:17:41;100252.44;;;15.17;39.63
78800;BME280;68148;55.328;86.106;2023-05-27T12:20:07;100238.94;;;15.05;40.15
78800;BME280;68148;55.328;86.106;2023-05-27T12:22:33;100245.69;;;15.01;40.98
78800;BME280;68148;55.328;86.106;2023-05-27T12:24:58;100235.59;;;14.76;41.56
78800;BME280;68148;55.328;86.106;2023-05-27T12:27:24;100243.13;;;14.53;41.94
78800;BME280;68148;55.328;86.106;2023-05-27T12:29:50;100229.59;;;14.48;42.37
78800;BME280;68148;55.328;86.106;2023-05-27T12:32:15;100236.94;;;14.46;42.54
78800;BME280;68148;55.328;86.106;2023-05-27T12:34:41;100238.34;;;14.35;43.93
78800;BME280;68148;55.328;86.106;2023-05-27T12:37:07;100240.34;;;14.33;43.31
78800;BME280;68148;55.328;86.106;2023-05-27T12:39:33;100232.78;;;14.30;43.02
78800;BME280;68148;55.328;86.106;2023-05-27T12:41:58;100228.06;;;14.25;44.03
78800;BME280;68148;55.328;86.106;2023-05-27T12:44:24;100238.50;;;14.27;43.21